createdAt,value
2023-01-12T00:02:08.516Z,4.40
2023-01-12T00:04:39.299Z,4.20
2023-01-12T00:07:11.590Z,3.90
2023-01-12T00:12:13.794Z,4.60
2023-01-12T00:14:44.243Z,4.20
2023-01-12T00:17:17.413Z,3.60
2023-01-12T00:19:47.893Z,4.00
2023-01-12T00:22:18.393Z,4.00
2023-01-12T00:24:49.969Z,3.70
2023-01-12T00:27:21.541Z,4.10
2023-01-12T00:29:52.215Z,4.00
2023-01-12T00:32:23.404Z,4.10
2023-01-12T00:34:53.827Z,4.50
2023-01-12T00:37:26.149Z,4.30
2023-01-12T00:40:02.478Z,3.80
2023-01-12T00:42:51.671Z,4.50
2023-01-12T00:45:25.010Z,5.10
2023-01-12T00:47:56.009Z,4.10
2023-01-12T00:50:26.460Z,4.00
2023-01-12T00:52:56.865Z,6.60
2023-01-12T00:55:27.301Z,6.80
2023-01-12T00:57:57.865Z,4.40
2023-01-12T01:00:28.572Z,5.00
2023-01-12T01:02:59.319Z,4.90
2023-01-12T01:05:30.953Z,5.10
2023-01-12T01:08:01.367Z,4.90
2023-01-12T01:10:31.849Z,5.20
2023-01-12T01:13:02.350Z,5.50
2023-01-12T01:15:32.820Z,4.70
2023-01-12T01:18:03.375Z,4.90
2023-01-12T01:20:36.486Z,4.60
2023-01-12T01:23:06.940Z,5.00
2023-01-12T01:25:37.559Z,5.00
2023-01-12T01:28:08.280Z,5.00
2023-01-12T01:30:39.237Z,5.40
2023-01-12T01:33:10.068Z,5.00
2023-01-12T01:35:40.535Z,5.40
2023-01-12T01:38:12.392Z,5.60
2023-01-12T01:40:45.437Z,5.60
2023-01-12T01:43:18.213Z,4.80
2023-01-12T01:45:56.541Z,5.00
2023-01-12T01:48:28.496Z,4.30
2023-01-12T01:51:02.415Z,4.40
2023-01-12T01:53:36.466Z,3.90
2023-01-12T01:56:11.610Z,4.90
2023-01-12T01:58:45.871Z,4.00
2023-01-12T02:01:16.407Z,4.90
2023-01-12T02:03:48.033Z,4.90
2023-01-12T02:06:19.007Z,5.00
2023-01-12T02:08:54.149Z,5.10
2023-01-12T02:11:43.681Z,4.40
2023-01-12T02:14:32.076Z,4.80
2023-01-12T02:17:13.041Z,4.50
2023-01-12T02:20:10.504Z,4.40
2023-01-12T02:26:11.131Z,3.60
2023-01-12T02:29:03.723Z,4.60
2023-01-12T02:31:52.658Z,4.30
2023-01-12T02:34:32.249Z,4.20
2023-01-12T02:37:14.405Z,4.30
2023-01-12T02:39:59.327Z,3.90
2023-01-12T02:42:50.705Z,3.90
2023-01-12T02:45:31.760Z,4.30
2023-01-12T02:48:10.335Z,4.60
2023-01-12T02:50:48.034Z,3.90
2023-01-12T02:53:24.464Z,4.20
2023-01-12T02:55:55.970Z,4.20
2023-01-12T02:58:31.006Z,4.50
2023-01-12T03:01:04.263Z,4.20
2023-01-12T03:03:36.196Z,5.20
2023-01-12T03:06:08.341Z,4.10
2023-01-12T03:08:40.964Z,3.90
2023-01-12T03:11:15.988Z,4.20
2023-01-12T03:13:52.985Z,4.20
2023-01-12T03:16:27.395Z,3.40
2023-01-12T03:19:02.768Z,4.40
2023-01-12T03:21:37.247Z,4.30
2023-01-12T03:24:11.662Z,3.70
2023-01-12T03:26:47.088Z,4.40
2023-01-12T03:29:23.382Z,3.70
2023-01-12T03:31:54.046Z,4.00
2023-01-12T03:34:24.953Z,3.60
2023-01-12T03:37:01.803Z,4.00
2023-01-12T03:39:39.244Z,4.20
2023-01-12T03:42:15.995Z,4.20
2023-01-12T03:44:59.642Z,4.00
2023-01-12T03:47:33.936Z,4.00
2023-01-12T03:50:08.802Z,3.80
2023-01-12T03:52:42.076Z,4.70
2023-01-12T03:55:16.843Z,4.30
2023-01-12T03:57:48.558Z,4.30
2023-01-12T04:00:21.453Z,5.00
2023-01-12T04:02:51.936Z,3.60
2023-01-12T04:05:22.409Z,4.40
2023-01-12T04:07:52.868Z,4.20
2023-01-12T04:10:23.311Z,4.20
2023-01-12T04:12:53.783Z,5.40
2023-01-12T04:15:24.256Z,4.00
2023-01-12T04:17:54.705Z,4.40
2023-01-12T04:20:25.552Z,3.80
2023-01-12T04:22:55.964Z,4.20
2023-01-12T04:25:26.439Z,4.10
2023-01-12T04:28:00.751Z,4.20
2023-01-12T04:30:32.516Z,4.20
2023-01-12T04:33:08.092Z,4.00
2023-01-12T04:35:38.673Z,3.80
2023-01-12T04:38:10.278Z,4.30
2023-01-12T04:40:40.767Z,3.90
2023-01-12T04:43:12.647Z,4.70
2023-01-12T04:45:43.893Z,5.50
2023-01-12T04:48:16.467Z,4.30
2023-01-12T04:50:47.302Z,5.50
2023-01-12T04:53:18.199Z,4.60
2023-01-12T04:55:49.683Z,5.20
2023-01-12T04:58:20.154Z,5.00
2023-01-12T05:00:50.743Z,5.70
2023-01-12T05:03:21.222Z,5.40
2023-01-12T05:05:52.016Z,5.50
2023-01-12T05:08:40.205Z,6.40
2023-01-12T05:11:10.641Z,5.40
2023-01-12T05:13:41.303Z,5.90
2023-01-12T05:16:15.644Z,6.00
2023-01-12T05:18:46.874Z,7.00
2023-01-12T05:21:18.949Z,5.80
2023-01-12T05:23:49.703Z,6.30
2023-01-12T05:26:20.559Z,6.90
2023-01-12T05:28:52.148Z,6.00
2023-01-12T05:31:22.577Z,5.30
2023-01-12T05:33:53.060Z,5.20
2023-01-12T05:36:25.698Z,5.40
2023-01-12T05:38:57.056Z,4.90
2023-01-12T05:41:27.790Z,5.00
2023-01-12T05:43:58.233Z,4.90
2023-01-12T05:46:30.269Z,4.30
2023-01-12T05:49:00.900Z,4.20
2023-01-12T05:51:32.781Z,4.00
2023-01-12T05:54:03.885Z,4.20
2023-01-12T05:56:34.314Z,4.70
2023-01-12T05:59:06.110Z,4.30
2023-01-12T06:01:36.730Z,3.60
2023-01-12T06:04:07.675Z,3.50
2023-01-12T06:06:38.139Z,4.20
2023-01-12T06:09:08.598Z,3.50
2023-01-12T06:11:56.391Z,4.00
2023-01-12T06:14:26.875Z,4.10
2023-01-12T06:16:57.361Z,4.60
2023-01-12T06:19:27.838Z,4.60
2023-01-12T06:21:59.618Z,3.60
2023-01-12T06:24:31.023Z,4.30
2023-01-12T06:27:01.602Z,4.40
2023-01-12T06:29:32.333Z,4.50
2023-01-12T06:32:02.751Z,4.30
2023-01-12T06:34:35.438Z,4.50
2023-01-12T06:37:07.299Z,4.30
2023-01-12T06:39:37.747Z,4.50
2023-01-12T06:42:26.033Z,4.20
2023-01-12T06:44:56.509Z,4.50
2023-01-12T06:47:27.958Z,4.40
2023-01-12T06:49:58.692Z,4.10
2023-01-12T06:52:30.315Z,4.10
2023-01-12T06:55:00.817Z,3.50
2023-01-12T06:57:31.335Z,4.20
2023-01-12T07:00:01.997Z,4.30
2023-01-12T07:02:32.465Z,4.20
2023-01-12T07:05:02.975Z,4.20
2023-01-12T07:07:33.626Z,4.70
2023-01-12T07:10:04.237Z,4.30
2023-01-12T07:12:34.717Z,4.50
2023-01-12T07:15:05.587Z,4.90
2023-01-12T07:17:36.146Z,3.50
2023-01-12T07:20:08.136Z,3.60
2023-01-12T07:22:39.459Z,3.90
2023-01-12T07:25:11.225Z,2.90
2023-01-12T07:27:49.424Z,3.20
2023-01-12T07:30:21.626Z,2.40
2023-01-12T07:32:52.871Z,2.70
2023-01-12T07:35:25.222Z,2.90
2023-01-12T07:37:55.957Z,2.80
2023-01-12T07:40:26.457Z,2.70
2023-01-12T07:43:03.137Z,3.60
2023-01-12T07:45:33.888Z,3.70
2023-01-12T07:48:04.944Z,3.40
2023-01-12T07:50:36.996Z,3.80
2023-01-12T07:53:07.420Z,4.10
2023-01-12T07:55:39.770Z,3.10
2023-01-12T08:00:40.428Z,3.20
2023-01-12T08:03:13.941Z,3.10
2023-01-12T08:05:44.754Z,4.30
2023-01-12T08:08:15.707Z,3.40
2023-01-12T08:10:48.432Z,3.80
2023-01-12T08:13:22.874Z,3.30
2023-01-12T08:15:55.507Z,4.20
2023-01-12T08:18:29.208Z,4.00
2023-01-12T08:21:05.623Z,3.70
2023-01-12T08:23:41.916Z,4.00
2023-01-12T08:26:16.646Z,4.10
2023-01-12T08:28:53.714Z,3.70
2023-01-12T08:31:26.117Z,3.90
2023-01-12T08:33:57.216Z,3.20
2023-01-12T08:36:29.521Z,3.00
2023-01-12T08:41:37.605Z,2.00
2023-01-12T08:44:10.981Z,2.50
2023-01-12T08:46:47.806Z,2.30
2023-01-12T08:49:21.127Z,2.20
2023-01-12T08:51:51.951Z,2.10
2023-01-12T08:54:23.623Z,2.00
2023-01-12T08:56:54.924Z,2.00
2023-01-12T08:59:25.739Z,1.70
2023-01-12T09:01:56.867Z,2.00
2023-01-12T09:04:27.625Z,2.50
2023-01-12T09:07:00.015Z,2.10
2023-01-12T09:09:30.874Z,1.70
2023-01-12T09:12:01.737Z,1.60
2023-01-12T09:14:32.195Z,2.00
2023-01-12T09:17:03.303Z,2.10
2023-01-12T09:19:33.907Z,1.70
2023-01-12T09:22:04.755Z,2.10
2023-01-12T09:24:35.423Z,1.80
2023-01-12T09:27:06.118Z,2.50
2023-01-12T09:29:36.713Z,2.20
2023-01-12T09:32:07.644Z,1.70
2023-01-12T09:34:38.097Z,1.40
2023-01-12T09:37:08.589Z,1.90
2023-01-12T09:39:39.105Z,1.40
2023-01-12T09:42:36.736Z,1.50
2023-01-12T09:45:35.904Z,1.60
2023-01-12T09:48:09.763Z,1.80
2023-01-12T09:50:44.313Z,1.80
2023-01-12T09:53:21.511Z,2.20
2023-01-12T09:55:57.898Z,1.80
2023-01-12T09:58:37.221Z,1.90
2023-01-12T10:01:24.060Z,2.00
2023-01-12T10:04:01.190Z,1.80
2023-01-12T10:06:33.087Z,2.10
2023-01-12T10:09:06.770Z,1.80
2023-01-12T10:11:43.982Z,1.60
2023-01-12T10:14:41.011Z,1.50
2023-01-12T10:17:27.755Z,2.10
2023-01-12T10:20:08.070Z,1.90
2023-01-12T10:22:45.328Z,2.20
2023-01-12T10:25:22.853Z,1.90
2023-01-12T10:27:55.340Z,1.90
2023-01-12T10:30:31.542Z,2.40
2023-01-12T10:33:11.063Z,1.70
2023-01-12T10:35:52.612Z,2.40
2023-01-12T10:38:33.926Z,1.80
2023-01-12T10:41:19.479Z,2.10
2023-01-12T10:44:13.772Z,1.80
2023-01-12T10:46:44.363Z,2.50
2023-01-12T10:49:25.288Z,2.20
2023-01-12T10:51:59.099Z,2.30
2023-01-12T10:54:32.321Z,1.80
2023-01-12T10:57:07.851Z,1.60
2023-01-12T10:59:41.608Z,1.60
2023-01-12T11:02:17.579Z,1.90
2023-01-12T11:04:51.577Z,1.60
2023-01-12T11:07:25.845Z,1.80
2023-01-12T11:09:57.584Z,1.60
2023-01-12T11:12:35.373Z,2.00
2023-01-12T11:15:17.886Z,1.80
2023-01-12T11:18:04.825Z,1.90
2023-01-12T11:20:40.839Z,1.60
2023-01-12T11:23:16.707Z,1.50
2023-01-12T11:25:50.644Z,2.00
2023-01-12T11:28:26.773Z,1.70
2023-01-12T11:31:01.698Z,1.50
2023-01-12T11:33:38.097Z,1.80
2023-01-12T11:36:13.404Z,1.70
2023-01-12T11:38:48.027Z,1.80
2023-01-12T11:41:25.697Z,2.00
2023-01-12T11:44:05.074Z,2.80
2023-01-12T11:46:42.600Z,1.40
2023-01-12T11:49:20.800Z,1.70
2023-01-12T11:51:57.033Z,1.90
2023-01-12T11:54:29.741Z,1.30
2023-01-12T11:57:16.266Z,2.00
2023-01-12T11:59:59.762Z,1.90
2023-01-12T12:02:38.048Z,1.80
2023-01-12T12:07:58.591Z,1.70
2023-01-12T12:10:37.847Z,1.70
2023-01-12T12:13:27.427Z,1.70
2023-01-12T12:16:11.444Z,1.50
2023-01-12T12:19:06.044Z,1.70
2023-01-12T12:21:51.076Z,1.50
2023-01-12T12:24:42.525Z,2.30
2023-01-12T12:27:25.806Z,1.60
2023-01-12T12:30:24.957Z,1.80
2023-01-12T12:33:02.579Z,1.50
2023-01-12T12:35:43.652Z,1.90
2023-01-12T12:38:26.955Z,1.60
2023-01-12T12:41:34.928Z,1.70
2023-01-12T12:44:38.999Z,1.70
2023-01-12T12:47:26.399Z,1.60
2023-01-12T12:49:59.866Z,1.80
2023-01-12T12:52:32.572Z,1.90
2023-01-12T12:55:04.659Z,2.30
2023-01-12T12:57:55.140Z,2.50
2023-01-12T13:00:42.308Z,2.30
2023-01-12T13:03:32.836Z,1.80
2023-01-12T13:06:20.263Z,2.00
2023-01-12T13:08:53.405Z,1.90
2023-01-12T13:11:54.340Z,2.10
2023-01-12T13:14:28.841Z,2.30
2023-01-12T13:17:02.660Z,2.00
2023-01-12T13:19:39.585Z,1.90
2023-01-12T13:22:43.285Z,1.90
2023-01-12T13:25:44.489Z,2.00
2023-01-12T13:28:21.501Z,2.50
2023-01-12T13:30:57.187Z,2.30
2023-01-12T13:33:29.277Z,1.80
2023-01-12T13:38:45.791Z,1.50
2023-01-12T13:41:36.060Z,1.20
2023-01-12T13:44:08.720Z,1.90
2023-01-12T13:46:46.559Z,2.20
2023-01-12T13:49:28.691Z,1.90
2023-01-12T13:52:01.722Z,2.00
2023-01-12T13:54:33.533Z,1.60
2023-01-12T13:57:06.870Z,1.80
2023-01-12T13:59:37.676Z,2.20
2023-01-12T14:02:19.916Z,1.90
2023-01-12T14:05:12.589Z,1.90
2023-01-12T14:08:00.503Z,1.50
2023-01-12T14:10:39.269Z,2.30
2023-01-12T14:13:29.214Z,1.50
2023-01-12T14:16:21.459Z,1.60
2023-01-12T14:18:52.828Z,2.10
2023-01-12T14:21:26.489Z,2.10
2023-01-12T14:24:14.319Z,2.00
2023-01-12T14:26:45.001Z,2.20
2023-01-12T14:29:15.780Z,2.20
2023-01-12T14:31:49.159Z,2.00
2023-01-12T14:34:31.984Z,2.10
2023-01-12T14:37:04.477Z,2.10
2023-01-12T14:39:41.322Z,2.40
2023-01-12T14:42:37.010Z,2.00
2023-01-12T14:45:42.270Z,1.70
2023-01-12T14:48:28.068Z,2.10
2023-01-12T14:51:17.791Z,2.30
2023-01-12T14:53:55.734Z,1.90
2023-01-12T14:56:29.569Z,2.40
2023-01-12T14:59:16.128Z,2.00
2023-01-12T15:01:46.978Z,2.00
2023-01-12T15:04:21.205Z,2.00
2023-01-12T15:07:04.451Z,2.20
2023-01-12T15:09:37.309Z,2.50
2023-01-12T15:12:26.724Z,2.60
2023-01-12T15:15:09.519Z,2.00
2023-01-12T15:17:57.406Z,2.20
2023-01-12T15:20:46.424Z,1.90
2023-01-12T15:23:34.892Z,1.90
2023-01-12T15:26:05.543Z,1.90
2023-01-12T15:28:36.008Z,2.10
2023-01-12T15:31:06.791Z,2.00
2023-01-12T15:33:37.272Z,2.00
2023-01-12T15:36:09.491Z,2.30
2023-01-12T15:38:39.914Z,2.20
2023-01-12T15:41:17.685Z,2.10
2023-01-12T15:43:48.244Z,2.50
2023-01-12T15:46:21.517Z,2.10
2023-01-12T15:48:52.032Z,1.90
2023-01-12T15:51:22.507Z,2.30
2023-01-12T15:53:52.956Z,2.40
2023-01-12T15:56:23.377Z,1.60
2023-01-12T15:58:53.836Z,1.90
2023-01-12T16:01:29.581Z,1.60
2023-01-12T16:04:25.304Z,1.50
2023-01-12T16:06:50.953Z,1.70
2023-01-12T16:09:21.708Z,1.80
2023-01-12T16:11:52.246Z,2.60
2023-01-12T16:14:23.750Z,1.90
2023-01-12T16:16:54.327Z,2.00
2023-01-12T16:19:25.140Z,2.20
2023-01-12T16:21:55.927Z,1.80
2023-01-12T16:24:26.925Z,2.10
2023-01-12T16:26:57.646Z,1.70
2023-01-12T16:29:28.240Z,1.50
2023-01-12T16:31:58.735Z,2.00
2023-01-12T16:34:29.467Z,1.60
2023-01-12T16:37:00.820Z,1.50
2023-01-12T16:39:32.163Z,1.80
2023-01-12T16:42:04.321Z,2.00
2023-01-12T16:47:09.309Z,1.90
2023-01-12T16:49:40.105Z,1.90
2023-01-12T16:52:14.425Z,2.10
2023-01-12T16:54:45.062Z,1.20
2023-01-12T16:57:18.285Z,2.10
2023-01-12T16:59:49.629Z,2.00
2023-01-12T17:02:22.016Z,1.80
2023-01-12T17:04:53.491Z,2.00
2023-01-12T17:07:24.103Z,1.70
2023-01-12T17:09:54.703Z,2.30
2023-01-12T17:12:25.493Z,1.80
2023-01-12T17:14:56.891Z,1.50
2023-01-12T17:17:28.307Z,1.90
2023-01-12T17:19:59.699Z,1.90
2023-01-12T17:22:31.658Z,1.80
2023-01-12T17:25:02.189Z,1.50
2023-01-12T17:27:32.703Z,1.80
2023-01-12T17:30:03.393Z,1.60
2023-01-12T17:32:33.868Z,1.80
2023-01-12T17:35:07.877Z,1.40
2023-01-12T17:37:38.371Z,1.80
2023-01-12T17:40:11.251Z,1.80
2023-01-12T17:42:58.720Z,1.50
2023-01-12T17:45:29.346Z,1.80
2023-01-12T17:47:59.771Z,1.70
2023-01-12T17:50:30.217Z,1.60
2023-01-12T17:53:00.832Z,2.30
2023-01-12T17:55:31.708Z,1.60
2023-01-12T17:58:02.263Z,2.10
2023-01-12T18:00:33.725Z,1.70
2023-01-12T18:03:04.323Z,1.90
2023-01-12T18:05:34.977Z,1.40
2023-01-12T18:08:05.547Z,1.60
2023-01-12T18:10:36.014Z,1.90
2023-01-12T18:13:06.441Z,1.60
2023-01-12T18:15:36.916Z,1.70
2023-01-12T18:18:07.421Z,1.90
2023-01-12T18:20:37.991Z,1.80
2023-01-12T18:23:08.396Z,1.70
2023-01-12T18:25:41.800Z,1.40
2023-01-12T18:28:12.309Z,1.70
2023-01-12T18:30:43.309Z,1.40
2023-01-12T18:33:13.710Z,1.70
2023-01-12T18:35:44.189Z,1.90
2023-01-12T18:38:14.668Z,2.00
2023-01-12T18:41:05.890Z,2.00
2023-01-12T18:43:36.361Z,1.70
2023-01-12T18:46:14.872Z,1.80
2023-01-12T18:48:47.201Z,1.90
2023-01-12T18:51:35.550Z,1.80
2023-01-12T18:54:06.162Z,1.50
2023-01-12T18:56:37.056Z,2.30
2023-01-12T18:59:08.165Z,2.00
2023-01-12T19:01:38.616Z,2.00
2023-01-12T19:04:09.663Z,2.50
2023-01-12T19:06:44.256Z,2.30
2023-01-12T19:09:32.785Z,2.20
2023-01-12T19:12:03.226Z,2.10
2023-01-12T19:14:51.522Z,2.30
2023-01-12T19:17:30.927Z,2.30
2023-01-12T19:20:03.196Z,1.70
2023-01-12T19:22:51.261Z,2.60
2023-01-12T19:25:41.328Z,1.50
2023-01-12T19:28:35.651Z,1.70
2023-01-12T19:31:09.763Z,1.50
2023-01-12T19:33:42.815Z,1.60
2023-01-12T19:36:15.977Z,2.20
2023-01-12T19:38:50.726Z,1.70
2023-01-12T19:41:35.166Z,1.80
2023-01-12T19:44:06.593Z,1.80
2023-01-12T19:46:37.054Z,2.10
2023-01-12T19:49:08.774Z,2.20
2023-01-12T19:51:39.215Z,2.20
2023-01-12T19:54:09.755Z,2.30
2023-01-12T19:56:40.417Z,2.00
2023-01-12T19:59:10.882Z,1.90
2023-01-12T20:01:41.456Z,2.00
2023-01-12T20:04:12.037Z,1.90
2023-01-12T20:06:42.469Z,2.70
2023-01-12T20:09:12.898Z,2.80
2023-01-12T20:11:43.492Z,2.50
2023-01-12T20:14:15.311Z,2.00
2023-01-12T20:16:45.796Z,1.60
2023-01-12T20:19:19.154Z,2.00
2023-01-12T20:21:49.636Z,2.00
2023-01-12T20:24:21.455Z,2.20
2023-01-12T20:26:51.922Z,1.90
2023-01-12T20:29:23.638Z,1.90
2023-01-12T20:31:54.836Z,1.80
2023-01-12T20:34:25.288Z,2.10
2023-01-12T20:36:55.853Z,2.10
2023-01-12T20:39:27.008Z,2.00
2023-01-12T20:41:57.751Z,1.90
2023-01-12T20:44:28.366Z,2.10
2023-01-12T20:46:58.861Z,2.00
2023-01-12T20:49:29.380Z,1.70
2023-01-12T20:52:02.138Z,1.90
2023-01-12T20:54:32.737Z,1.70
2023-01-12T20:57:03.184Z,2.00
2023-01-12T20:59:33.699Z,1.80
2023-01-12T21:02:04.259Z,2.30
2023-01-12T21:04:35.457Z,1.80
2023-01-12T21:07:05.949Z,1.50
2023-01-12T21:09:36.590Z,1.60
2023-01-12T21:12:07.674Z,1.80
2023-01-12T21:14:38.744Z,2.20
2023-01-12T21:17:09.574Z,1.90
2023-01-12T21:19:40.594Z,2.20
2023-01-12T21:22:12.174Z,1.70
2023-01-12T21:24:42.689Z,1.90
2023-01-12T21:27:13.757Z,1.80
2023-01-12T21:29:44.499Z,2.20
2023-01-12T21:32:14.993Z,2.10
2023-01-12T21:34:45.510Z,1.90
2023-01-12T21:37:16.459Z,1.90
2023-01-12T21:39:47.221Z,2.10
2023-01-12T21:42:35.049Z,1.80
2023-01-12T21:45:06.410Z,1.80
2023-01-12T21:47:36.860Z,1.60
2023-01-12T21:50:08.255Z,1.80
2023-01-12T21:52:41.563Z,3.00
2023-01-12T21:55:13.805Z,2.00
2023-01-12T21:57:44.668Z,2.20
2023-01-12T22:00:16.968Z,1.80
2023-01-12T22:02:47.504Z,2.10
2023-01-12T22:05:18.353Z,1.60
2023-01-12T22:07:49.438Z,1.60
2023-01-12T22:10:20.995Z,1.40
2023-01-12T22:12:54.143Z,1.50
2023-01-12T22:15:25.939Z,1.50
2023-01-12T22:17:57.192Z,1.50
2023-01-12T22:20:28.836Z,1.50
2023-01-12T22:22:59.356Z,1.40
2023-01-12T22:25:29.768Z,1.60
2023-01-12T22:28:00.295Z,1.50
2023-01-12T22:30:30.808Z,1.40
2023-01-12T22:33:01.232Z,1.60
2023-01-12T22:35:31.627Z,1.60
2023-01-12T22:38:02.431Z,1.40
2023-01-12T22:40:32.864Z,1.50
2023-01-12T22:43:20.746Z,1.40
2023-01-12T22:45:53.435Z,1.80
2023-01-12T22:48:24.325Z,1.50
2023-01-12T22:50:55.432Z,1.50
2023-01-12T22:53:26.343Z,1.80
2023-01-12T22:55:59.793Z,1.40
2023-01-12T22:58:30.373Z,1.30
2023-01-12T23:01:07.574Z,1.30
2023-01-12T23:03:38.793Z,1.60
2023-01-12T23:06:14.019Z,1.30
2023-01-12T23:08:45.837Z,1.40
2023-01-12T23:11:18.744Z,1.40
2023-01-12T23:13:49.822Z,1.40
2023-01-12T23:16:21.295Z,1.50
2023-01-12T23:18:52.197Z,1.50
2023-01-12T23:21:25.174Z,1.30
2023-01-12T23:23:57.605Z,1.50
2023-01-12T23:26:31.246Z,1.00
2023-01-12T23:29:03.535Z,1.20
2023-01-12T23:31:35.470Z,1.00
2023-01-12T23:34:06.123Z,1.60
2023-01-12T23:36:37.063Z,1.30
2023-01-12T23:39:10.973Z,1.60
2023-01-12T23:41:41.707Z,1.60
2023-01-12T23:44:13.157Z,1.40
2023-01-12T23:46:43.893Z,1.20
2023-01-12T23:49:14.523Z,1.20
2023-01-12T23:51:45.059Z,1.00
2023-01-12T23:54:18.568Z,1.50
2023-01-12T23:56:51.868Z,1.30
2023-01-12T23:59:22.589Z,1.60
